7W6

Hyde County Airport

Engelhard, North Carolina, USA
METAR K7W6 181600Z AUTO 03006KT 10SM OVC045 15/10 A3031 RMK AO2 T01490097
Observed Flight Rules
Nov-18 @ 16:00 UTC (30 minutes ago) Visual Flight Rules
Wind Visibility Clouds
30° at 6 knots 10 miles
  • Overcast at 4,500' AGL
Temperatures Readings
Current 15°C / 59°F
Dewpoint 10°C / 50°F
Humidity 72%
Altimeter 30.31" Hg
Pressure 1026 hPa
Elevation 2
METAR K7W6 181600Z AUTO 03006KT 10SM OVC045 15/10 A3031 RMK AO2 T01490097
Observed Flight Rules
Nov-18 @ 16:00 UTC
(30 minutes ago)
VFR
Wind Visibility
30° at 6 knots 10 miles
Clouds
  • Overcast at 4,500' AGL
Temperature Dewpoint
15°C / 59°F 10°C / 50°F
Humidity Altimeter Pressure
72% 30.31" Hg 1026 hPa